Terminal Aerodrome Forecast
Issued by NWS Boston, MA

Home | Current Version | Previous Version | Text Only | Print | Product List | Glossary On
Versions: 1 2 3 4 5 6 7 8 9 10 11 12 13 14 15 16 17 18 19 20 21 22 23 24 25
000
FTUS41 KBOX 250416 AAA
TAFBOS
TAF AMD
KBOS 250416Z 2504/2606 13005KT P6SM BKN130 BKN200
     FM250600 07006KT P6SM BKN080
     FM251200 06010KT P6SM OVC050
     FM251500 07012G22KT 2SM -RA BR OVC008
     FM252100 07014G22KT 1/2SM -RA FG OVC003
     FM260400 07010KT 1/2SM -RA FG OVC003=

USA.gov is the U.S. government's official web portal to all federal, state and local government web resources and services.